KPSK/PSK METAR and TAF weather

Enter ICAO airport designator
Station Type Date Time Source
KPSK METAR 2022/01/26 07:35 UTC NOAA

KPSK 260735Z AUTO 33008KT 10SM OVC023 M03/M06 A3015 RMK AO2 T10261062


Station Type Date Time Source
KPSK Decoded METAR 2022/01/26 07:35 UTC NOAA

Dublin / New River Valley, VA, United States (KPSK) 37-08N 080-41W
Jan 26, 2022 - 02:35 AM EST / 2022.01.26 0735 UTC
Wind: from the NNW (330 degrees) at 9 MPH (8 KT):0
Visibility: 10 mile(s):0
Sky conditions: overcast
Temperature: 27.3 F (-2.6 C)
Windchill: 17 F (-8 C):1
Dew Point: 20.8 F (-6.2 C)
Relative Humidity: 76%
Pressure (altimeter): 30.15 in. Hg (1020 hPa)
ob: KPSK 260735Z AUTO 33008KT 10SM OVC023 M03/M06 A3015 RMK AO2 T10261062
cycle: 7

Station Type Date Time Source
KPSK TAF UTC NOAA

Error!

Example: see airport list